createdAt,value
2023-05-01T00:04:51.565Z,9.40
2023-05-01T00:07:18.584Z,5.47
2023-05-01T00:09:46.048Z,8.45
2023-05-01T00:12:13.212Z,9.77
2023-05-01T00:14:42.389Z,7.75
2023-05-01T00:17:10.713Z,11.40
2023-05-01T00:19:37.945Z,7.78
2023-05-01T00:22:04.880Z,12.45
2023-05-01T00:24:32.106Z,9.38
2023-05-01T00:26:59.276Z,9.35
2023-05-01T00:29:26.718Z,7.60
2023-05-01T00:31:54.539Z,8.45
2023-05-01T00:34:25.128Z,7.70
2023-05-01T00:36:52.362Z,8.40
2023-05-01T00:39:19.731Z,9.50
2023-05-01T00:41:46.672Z,7.50
2023-05-01T00:44:13.974Z,12.57
2023-05-01T00:46:40.940Z,6.80
2023-05-01T00:49:10.777Z,6.28
2023-05-01T00:51:39.313Z,9.00
2023-05-01T00:54:07.245Z,8.45
2023-05-01T00:56:34.167Z,8.57
2023-05-01T00:59:01.550Z,12.77
2023-05-01T01:01:28.922Z,7.97
2023-05-01T01:03:56.735Z,7.38
2023-05-01T01:06:33.117Z,5.47
2023-05-01T01:09:13.045Z,11.40
2023-05-01T01:11:46.476Z,12.45
2023-05-01T01:14:19.096Z,7.85
2023-05-01T01:16:55.020Z,9.20
2023-05-01T01:19:45.741Z,8.88
2023-05-01T01:22:18.986Z,12.38
2023-05-01T01:25:16.525Z,10.73
2023-05-01T01:28:06.485Z,6.65
2023-05-01T01:31:09.018Z,10.95
2023-05-01T01:33:59.056Z,7.20
2023-05-01T01:36:34.903Z,6.05
2023-05-01T01:39:10.536Z,7.65
2023-05-01T01:41:39.448Z,11.77
2023-05-01T01:44:12.814Z,9.32
2023-05-01T01:46:42.830Z,7.82
2023-05-01T01:49:15.841Z,6.85
2023-05-01T01:51:45.542Z,14.23
2023-05-01T01:54:18.412Z,6.18
2023-05-01T01:56:47.331Z,12.60
2023-05-01T01:59:15.912Z,7.25
2023-05-01T02:01:44.720Z,12.02
2023-05-01T02:04:15.195Z,7.70
2023-05-01T02:06:44.773Z,10.52
2023-05-01T02:09:12.686Z,10.63
2023-05-01T02:11:41.448Z,8.17
2023-05-01T02:14:10.795Z,8.23
2023-05-01T02:16:38.232Z,7.90
2023-05-01T02:19:05.562Z,9.73
2023-05-01T02:21:37.805Z,8.57
2023-05-01T02:24:06.636Z,10.18
2023-05-01T02:29:07.501Z,7.45
2023-05-01T02:34:01.570Z,7.35
2023-05-01T02:36:29.078Z,8.05
2023-05-01T02:38:58.016Z,8.52
2023-05-01T02:41:27.974Z,7.55
2023-05-01T02:44:00.624Z,6.20
2023-05-01T02:46:29.736Z,10.85
2023-05-01T02:48:58.188Z,11.73
2023-05-01T02:51:26.545Z,6.57
2023-05-01T02:53:54.353Z,9.60
2023-05-01T02:56:23.543Z,7.38
2023-05-01T02:58:50.502Z,8.95
2023-05-01T03:01:17.836Z,7.35
2023-05-01T03:03:45.033Z,8.48
2023-05-01T03:06:14.335Z,8.90
2023-05-01T03:11:08.340Z,7.68
2023-05-01T03:13:36.764Z,9.52
2023-05-01T03:16:04.868Z,8.93
2023-05-01T03:18:34.163Z,6.38
2023-05-01T03:21:01.567Z,8.05
2023-05-01T03:23:28.677Z,8.23
2023-05-01T03:25:56.111Z,7.35
2023-05-01T03:28:23.652Z,10.15
2023-05-01T03:30:52.979Z,9.18
2023-05-01T03:35:47.943Z,8.55
2023-05-01T03:38:16.407Z,7.32
2023-05-01T03:40:43.748Z,10.02
2023-05-01T03:43:10.713Z,10.27
2023-05-01T03:45:38.063Z,9.27
2023-05-01T03:48:06.766Z,8.35
2023-05-01T03:53:00.751Z,8.48
2023-05-01T03:55:28.008Z,8.20
2023-05-01T03:57:55.117Z,9.43
2023-05-01T04:00:22.517Z,11.93
2023-05-01T04:02:49.829Z,7.03
2023-05-01T04:05:19.094Z,7.30
2023-05-01T04:07:46.442Z,7.82
2023-05-01T04:10:13.784Z,8.88
2023-05-01T04:12:41.120Z,9.90
2023-05-01T04:15:09.928Z,9.15
2023-05-01T04:17:37.245Z,7.03
2023-05-01T04:20:08.298Z,9.25
2023-05-01T04:22:37.273Z,8.15
2023-05-01T04:25:05.104Z,11.90
2023-05-01T04:27:32.103Z,7.95
2023-05-01T04:29:59.526Z,10.50
2023-05-01T04:32:26.882Z,13.18
2023-05-01T04:34:54.284Z,8.10
2023-05-01T04:37:21.194Z,9.02
2023-05-01T04:39:50.976Z,7.28
2023-05-01T04:42:18.313Z,6.45
2023-05-01T04:44:45.904Z,7.10
2023-05-01T04:47:12.961Z,6.13
2023-05-01T04:49:40.336Z,13.77
2023-05-01T04:52:07.270Z,11.60
2023-05-01T04:54:34.608Z,11.20
2023-05-01T04:57:03.349Z,8.23
2023-05-01T04:59:30.628Z,5.53
2023-05-01T05:01:57.697Z,4.57
2023-05-01T05:04:25.188Z,4.85
2023-05-01T05:06:52.390Z,7.78
2023-05-01T05:09:20.334Z,15.02
2023-05-01T05:11:47.429Z,6.82
2023-05-01T05:14:16.087Z,13.40
2023-05-01T05:16:43.236Z,7.40
2023-05-01T05:19:10.390Z,5.72
2023-05-01T05:21:37.444Z,8.60
2023-05-01T05:24:05.183Z,7.25
2023-05-01T05:26:32.280Z,9.07
2023-05-01T05:28:59.499Z,10.88
2023-05-01T05:31:27.951Z,9.90
2023-05-01T05:33:55.254Z,8.57
2023-05-01T05:36:22.242Z,9.13
2023-05-01T05:38:49.636Z,8.27
2023-05-01T05:41:16.676Z,6.75
2023-05-01T05:43:44.310Z,6.50
2023-05-01T05:46:11.712Z,10.32
2023-05-01T05:48:40.548Z,7.60
2023-05-01T05:51:07.424Z,8.90
2023-05-01T05:53:34.750Z,6.53
2023-05-01T05:56:01.895Z,8.02
2023-05-01T05:58:31.997Z,5.97
2023-05-01T06:01:00.720Z,7.75
2023-05-01T06:03:28.853Z,5.70
2023-05-01T06:05:57.738Z,12.53
2023-05-01T06:08:26.110Z,4.18
2023-05-01T06:10:53.300Z,4.63
2023-05-01T06:13:20.838Z,6.15
2023-05-01T06:15:48.082Z,11.55
2023-05-01T06:18:17.414Z,6.63
2023-05-01T06:20:44.871Z,5.18
2023-05-01T06:23:13.933Z,5.05
2023-05-01T06:25:40.899Z,4.90
2023-05-01T06:28:08.397Z,7.65
2023-05-01T06:30:35.454Z,8.23
2023-05-01T06:33:03.150Z,4.22
2023-05-01T06:35:30.200Z,9.35
2023-05-01T06:37:57.507Z,6.40
2023-05-01T06:40:25.928Z,11.55
2023-05-01T06:45:28.400Z,7.30
2023-05-01T06:47:57.948Z,7.35
2023-05-01T06:50:25.361Z,5.25
2023-05-01T06:52:54.609Z,7.60
2023-05-01T06:55:22.604Z,5.43
2023-05-01T06:57:51.184Z,4.78
2023-05-01T07:00:19.201Z,9.25
2023-05-01T07:02:46.816Z,8.77
2023-05-01T07:05:14.034Z,7.78
2023-05-01T07:07:47.374Z,9.98
2023-05-01T07:10:17.823Z,6.60
2023-05-01T07:12:45.738Z,3.78
2023-05-01T07:15:16.218Z,3.28
2023-05-01T07:17:43.728Z,10.50
2023-05-01T07:20:11.525Z,8.13
2023-05-01T07:22:38.810Z,5.93
2023-05-01T07:25:07.367Z,4.68
2023-05-01T07:27:35.127Z,3.15
2023-05-01T07:30:05.163Z,5.22
2023-05-01T07:32:34.271Z,5.80
2023-05-01T07:35:01.965Z,4.45
2023-05-01T07:37:29.586Z,2.80
2023-05-01T07:39:57.150Z,6.63
2023-05-01T07:42:26.403Z,8.45
2023-05-01T07:44:53.524Z,10.95
2023-05-01T07:47:27.620Z,3.85
2023-05-01T07:49:56.652Z,6.97
2023-05-01T07:52:24.827Z,3.38
2023-05-01T07:54:51.986Z,6.00
2023-05-01T07:57:19.533Z,4.57
2023-05-01T07:59:46.853Z,4.10
2023-05-01T08:02:17.366Z,5.47
2023-05-01T08:04:46.164Z,12.55
2023-05-01T08:07:15.266Z,5.45
2023-05-01T08:12:09.836Z,12.45
2023-05-01T08:14:37.528Z,7.35
2023-05-01T08:17:04.865Z,5.15
2023-05-01T08:19:33.590Z,6.05
2023-05-01T08:22:01.045Z,4.00
2023-05-01T08:24:30.030Z,3.55
2023-05-01T08:26:58.274Z,5.40
2023-05-01T08:29:25.843Z,5.57
2023-05-01T08:31:53.575Z,5.60
2023-05-01T08:34:21.118Z,6.15
2023-05-01T08:36:48.445Z,4.88
2023-05-01T08:39:15.810Z,9.30
2023-05-01T08:41:47.276Z,7.45
2023-05-01T08:44:16.469Z,10.73
2023-05-01T08:46:48.118Z,6.85
2023-05-01T08:49:19.841Z,5.75
2023-05-01T08:51:48.642Z,4.65
2023-05-01T08:54:17.780Z,13.40
2023-05-01T08:56:47.365Z,7.63
2023-05-01T08:59:15.943Z,12.73
2023-05-01T09:01:47.119Z,5.55
2023-05-01T09:04:19.008Z,4.38
2023-05-01T09:06:46.859Z,7.32
2023-05-01T09:09:13.889Z,5.15
2023-05-01T09:11:44.788Z,9.82
2023-05-01T09:14:13.165Z,8.07
2023-05-01T09:19:09.549Z,12.18
2023-05-01T09:21:36.867Z,5.63
2023-05-01T09:24:04.952Z,5.80
2023-05-01T09:26:34.224Z,6.78
2023-05-01T09:29:02.769Z,7.70
2023-05-01T09:31:35.071Z,8.48
2023-05-01T09:34:03.972Z,5.32
2023-05-01T09:36:33.674Z,4.50
2023-05-01T09:39:03.266Z,6.25
2023-05-01T09:41:33.973Z,6.25
2023-05-01T09:44:01.825Z,10.20
2023-05-01T09:46:40.852Z,9.40
2023-05-01T09:49:11.545Z,6.20
2023-05-01T09:51:39.898Z,6.47
2023-05-01T09:54:18.552Z,5.20
2023-05-01T09:56:48.328Z,7.88
2023-05-01T09:59:20.085Z,6.47
2023-05-01T10:01:50.301Z,8.35
2023-05-01T10:04:30.128Z,7.10
2023-05-01T10:07:12.253Z,7.68
2023-05-01T10:09:44.864Z,5.00
2023-05-01T10:12:23.990Z,6.13
2023-05-01T10:14:52.548Z,6.93
2023-05-01T10:17:23.790Z,4.63
2023-05-01T10:19:55.705Z,5.60
2023-05-01T10:22:23.688Z,6.63
2023-05-01T10:24:50.952Z,8.38
2023-05-01T10:27:23.252Z,5.78
2023-05-01T10:29:52.583Z,4.47
2023-05-01T10:32:21.435Z,7.80
2023-05-01T10:34:52.589Z,5.65
2023-05-01T10:37:24.782Z,5.88
2023-05-01T10:39:51.843Z,3.15
2023-05-01T10:42:21.849Z,11.23
2023-05-01T10:44:52.814Z,5.20
2023-05-01T10:47:45.275Z,4.75
2023-05-01T10:50:15.834Z,5.25
2023-05-01T10:53:18.164Z,8.40
2023-05-01T10:55:49.269Z,4.93
2023-05-01T10:59:07.437Z,3.55
2023-05-01T11:01:36.801Z,9.07
2023-05-01T11:04:08.021Z,3.97
2023-05-01T11:06:36.452Z,6.10
2023-05-01T11:09:39.669Z,3.22
2023-05-01T11:12:07.904Z,3.75
2023-05-01T11:17:46.056Z,3.72
2023-05-01T11:20:34.581Z,4.78
2023-05-01T11:25:33.988Z,2.10
2023-05-01T11:28:03.827Z,3.22
2023-05-01T11:30:37.740Z,3.95
2023-05-01T11:33:05.789Z,5.15
2023-05-01T11:35:34.078Z,3.40
2023-05-01T11:38:03.717Z,3.33
2023-05-01T11:40:34.323Z,4.57
2023-05-01T11:43:02.886Z,5.90
2023-05-01T11:45:31.175Z,5.10
2023-05-01T11:47:59.475Z,6.75
2023-05-01T11:50:32.876Z,3.60
2023-05-01T11:53:02.874Z,6.82
2023-05-01T11:55:35.815Z,4.82
2023-05-01T11:58:04.946Z,11.27
2023-05-01T12:00:38.208Z,2.80
2023-05-01T12:03:08.369Z,3.28
2023-05-01T12:05:37.576Z,3.78
2023-05-01T12:08:10.141Z,2.67
2023-05-01T12:10:40.981Z,3.55
2023-05-01T12:13:09.212Z,3.45
2023-05-01T12:18:05.229Z,6.07
2023-05-01T12:20:37.930Z,4.13
2023-05-01T12:23:05.974Z,3.92
2023-05-01T12:25:34.954Z,3.85
2023-05-01T12:28:10.324Z,5.78
2023-05-01T12:30:38.295Z,5.68
2023-05-01T12:33:12.813Z,2.47
2023-05-01T12:35:41.114Z,2.13
2023-05-01T12:38:13.157Z,3.40
2023-05-01T12:40:49.385Z,2.53
2023-05-01T12:43:18.895Z,3.03
2023-05-01T12:45:49.518Z,2.50
2023-05-01T12:48:16.689Z,10.52
2023-05-01T12:50:47.287Z,2.80
2023-05-01T12:53:15.054Z,4.82
2023-05-01T12:55:45.673Z,2.30
2023-05-01T12:58:12.932Z,3.33
2023-05-01T13:00:49.179Z,2.70
2023-05-01T13:03:23.316Z,9.20
2023-05-01T13:05:52.664Z,2.33
2023-05-01T13:08:27.750Z,4.32
2023-05-01T13:10:57.277Z,4.82
2023-05-01T13:13:29.436Z,3.40
2023-05-01T13:16:14.305Z,4.50
2023-05-01T13:18:49.144Z,3.08
2023-05-01T13:21:18.948Z,2.45
2023-05-01T13:23:53.772Z,2.13
2023-05-01T13:26:27.013Z,4.10
2023-05-01T13:28:54.213Z,2.42
2023-05-01T13:31:22.933Z,2.55
2023-05-01T13:33:51.745Z,3.33
2023-05-01T13:36:26.115Z,2.55
2023-05-01T13:38:57.500Z,7.18
2023-05-01T13:41:26.405Z,2.10
2023-05-01T13:43:56.076Z,3.03
2023-05-01T13:46:26.621Z,2.97
2023-05-01T13:48:53.793Z,4.90
2023-05-01T13:51:25.320Z,3.95
2023-05-01T13:53:57.482Z,3.45
2023-05-01T13:56:24.950Z,4.28
2023-05-01T13:58:51.875Z,3.25
2023-05-01T14:01:21.370Z,1.70
2023-05-01T14:03:50.354Z,1.83
2023-05-01T14:06:19.190Z,2.40
2023-05-01T14:08:48.099Z,2.38
2023-05-01T14:11:15.809Z,2.40
2023-05-01T14:13:44.237Z,2.28
2023-05-01T14:16:18.799Z,1.88
2023-05-01T14:18:47.425Z,2.88
2023-05-01T14:21:18.569Z,4.28
2023-05-01T14:23:46.105Z,6.25
2023-05-01T14:26:18.597Z,2.30
2023-05-01T14:28:48.121Z,3.63
2023-05-01T14:31:24.265Z,2.38
2023-05-01T14:33:55.671Z,1.77
2023-05-01T14:36:24.662Z,5.80
2023-05-01T14:41:21.170Z,5.82
2023-05-01T14:43:51.220Z,4.17
2023-05-01T14:46:30.914Z,4.50
2023-05-01T14:48:58.361Z,12.35
2023-05-01T14:51:27.552Z,2.85
2023-05-01T14:53:55.077Z,6.18
2023-05-01T14:56:23.083Z,6.03
2023-05-01T14:58:53.263Z,2.92
2023-05-01T15:01:20.800Z,7.65
2023-05-01T15:03:47.989Z,1.98
2023-05-01T15:06:15.810Z,2.42
2023-05-01T15:08:44.457Z,2.67
2023-05-01T15:11:14.309Z,3.70
2023-05-01T15:13:42.741Z,2.80
2023-05-01T15:16:11.210Z,5.05
2023-05-01T15:18:38.252Z,3.08
2023-05-01T15:21:05.657Z,5.93
2023-05-01T15:23:32.903Z,5.60
2023-05-01T15:26:01.790Z,3.38
2023-05-01T15:30:58.839Z,2.22
2023-05-01T15:33:26.426Z,3.88
2023-05-01T15:35:53.984Z,6.32
2023-05-01T15:38:21.703Z,3.40
2023-05-01T15:40:50.088Z,4.10
2023-05-01T15:43:18.667Z,3.78
2023-05-01T15:45:46.203Z,2.40
2023-05-01T15:48:13.254Z,4.55
2023-05-01T15:50:40.944Z,2.15
2023-05-01T15:53:08.585Z,2.17
2023-05-01T15:55:36.740Z,2.70
2023-05-01T15:58:03.819Z,2.47
2023-05-01T16:00:36.167Z,2.45
2023-05-01T16:03:04.529Z,3.58
2023-05-01T16:05:32.280Z,1.80
2023-05-01T16:08:00.817Z,4.50
2023-05-01T16:10:28.254Z,3.15
2023-05-01T16:12:55.553Z,5.50
2023-05-01T16:15:23.168Z,3.60
2023-05-01T16:17:52.067Z,6.47
2023-05-01T16:20:20.534Z,4.43
2023-05-01T16:22:47.917Z,7.68
2023-05-01T16:25:17.368Z,2.50
2023-05-01T16:27:47.559Z,10.10
2023-05-01T16:30:15.066Z,2.40
2023-05-01T16:32:43.248Z,4.07
2023-05-01T16:35:17.356Z,5.68
2023-05-01T16:37:44.768Z,6.03
2023-05-01T16:40:16.598Z,7.93
2023-05-01T16:42:50.599Z,15.20
2023-05-01T16:45:18.148Z,9.32
2023-05-01T16:47:45.984Z,7.13
2023-05-01T16:50:16.399Z,6.55
2023-05-01T16:52:43.813Z,8.38
2023-05-01T16:55:11.592Z,3.50
2023-05-01T16:57:38.658Z,6.57
2023-05-01T17:00:09.484Z,7.13
2023-05-01T17:02:37.047Z,6.60
2023-05-01T17:05:04.920Z,8.43
2023-05-01T17:07:35.264Z,8.65
2023-05-01T17:10:07.677Z,5.85
2023-05-01T17:12:36.798Z,3.13
2023-05-01T17:15:04.856Z,6.68
2023-05-01T17:17:32.264Z,8.40
2023-05-01T17:19:59.784Z,10.10
2023-05-01T17:22:29.043Z,9.32
2023-05-01T17:25:02.133Z,5.72
2023-05-01T17:27:29.690Z,12.68
2023-05-01T17:30:26.055Z,8.27
2023-05-01T17:32:53.762Z,6.05
2023-05-01T17:35:21.201Z,5.30
2023-05-01T17:37:48.166Z,4.97
2023-05-01T17:40:17.270Z,10.63
2023-05-01T17:45:14.836Z,12.57
2023-05-01T17:47:45.270Z,4.72
2023-05-01T17:50:16.134Z,4.90
2023-05-01T17:52:45.149Z,8.50
2023-05-01T17:55:18.317Z,7.80
2023-05-01T17:57:47.713Z,9.23
2023-05-01T18:00:16.310Z,20.27
2023-05-01T18:02:45.105Z,37.38
2023-05-01T18:05:13.223Z,39.85
2023-05-01T18:07:40.971Z,38.22
2023-05-01T18:10:10.764Z,35.75
2023-05-01T18:12:40.225Z,36.55
2023-05-01T18:15:11.704Z,32.55
2023-05-01T18:17:38.720Z,40.40
2023-05-01T18:20:09.436Z,31.65
2023-05-01T18:22:38.111Z,33.00
2023-05-01T18:25:07.801Z,28.30
2023-05-01T18:27:35.716Z,30.25
2023-05-01T18:30:03.180Z,29.83
2023-05-01T18:32:46.910Z,25.48
2023-05-01T18:35:21.162Z,18.90
2023-05-01T18:37:48.157Z,28.13
2023-05-01T18:40:15.506Z,16.20
2023-05-01T18:42:42.950Z,22.25
2023-05-01T18:45:10.861Z,18.35
2023-05-01T18:47:48.955Z,22.58
2023-05-01T18:50:21.556Z,24.95
2023-05-01T18:52:49.030Z,27.67
2023-05-01T18:55:17.674Z,47.10
2023-05-01T18:57:46.722Z,32.63
2023-05-01T19:00:16.810Z,31.70
2023-05-01T19:02:54.270Z,30.50
2023-05-01T19:05:22.816Z,29.65
2023-05-01T19:07:50.108Z,20.08
2023-05-01T19:10:18.051Z,29.83
2023-05-01T19:12:48.371Z,30.67
2023-05-01T19:15:18.464Z,24.63
2023-05-01T19:17:46.985Z,22.45
2023-05-01T19:22:41.489Z,21.50
2023-05-01T19:25:09.921Z,18.08
2023-05-01T19:27:37.246Z,17.48
2023-05-01T19:30:05.672Z,22.58
2023-05-01T19:32:32.874Z,23.05
2023-05-01T19:35:01.802Z,19.48
2023-05-01T19:37:28.833Z,16.92
2023-05-01T19:39:56.719Z,11.68
2023-05-01T19:42:24.024Z,12.38
2023-05-01T19:44:51.314Z,16.65
2023-05-01T19:47:18.341Z,8.85
2023-05-01T19:49:45.895Z,6.85
2023-05-01T19:52:14.703Z,10.13
2023-05-01T19:54:44.945Z,13.77
2023-05-01T19:57:12.965Z,15.00
2023-05-01T19:59:41.303Z,8.88
2023-05-01T20:02:10.744Z,12.23
2023-05-01T20:04:38.773Z,11.90
2023-05-01T20:07:06.397Z,15.13
2023-05-01T20:09:35.359Z,10.33
2023-05-01T20:12:03.201Z,9.02
2023-05-01T20:14:33.528Z,6.72
2023-05-01T20:17:01.381Z,12.18
2023-05-01T20:19:29.035Z,14.25
2023-05-01T20:21:56.216Z,10.68
2023-05-01T20:24:24.969Z,11.27
2023-05-01T20:26:55.861Z,11.63
2023-05-01T20:29:27.032Z,13.50
2023-05-01T20:31:54.810Z,16.90
2023-05-01T20:34:23.476Z,14.07
2023-05-01T20:36:50.735Z,9.23
2023-05-01T20:39:18.069Z,10.75
2023-05-01T20:41:46.358Z,10.57
2023-05-01T20:44:15.674Z,17.10
2023-05-01T20:46:43.354Z,12.65
2023-05-01T20:49:12.529Z,11.07
2023-05-01T20:51:41.640Z,12.40
2023-05-01T20:54:09.444Z,14.40
2023-05-01T20:56:36.529Z,7.72
2023-05-01T20:59:04.799Z,13.50
2023-05-01T21:01:33.391Z,26.00
2023-05-01T21:06:31.600Z,16.05
2023-05-01T21:08:59.578Z,18.52
2023-05-01T21:11:26.652Z,14.25
2023-05-01T21:13:54.159Z,13.95
2023-05-01T21:16:21.321Z,14.20
2023-05-01T21:18:50.073Z,10.75
2023-05-01T21:21:17.226Z,15.40
2023-05-01T21:23:48.801Z,8.90
2023-05-01T21:26:16.373Z,9.07
2023-05-01T21:28:43.755Z,7.50
2023-05-01T21:31:12.217Z,5.63
2023-05-01T21:36:10.694Z,4.95
2023-05-01T21:38:39.123Z,5.45
2023-05-01T21:41:06.346Z,6.10
2023-05-01T21:43:34.814Z,9.48
2023-05-01T21:46:02.765Z,10.88
2023-05-01T21:48:34.667Z,11.80
2023-05-01T21:51:01.716Z,9.60
2023-05-01T21:53:32.209Z,8.30
2023-05-01T21:55:59.301Z,7.18
2023-05-01T21:58:28.237Z,9.70
2023-05-01T22:00:55.491Z,6.30
2023-05-01T22:03:25.008Z,5.22
2023-05-01T22:05:53.130Z,4.38
2023-05-01T22:08:20.528Z,3.58
2023-05-01T22:10:49.361Z,5.22
2023-05-01T22:13:17.052Z,12.25
2023-05-01T22:15:44.071Z,24.23
2023-05-01T22:18:11.554Z,15.63
2023-05-01T22:20:38.500Z,17.80
2023-05-01T22:23:05.852Z,13.48
2023-05-01T22:25:33.049Z,6.75
2023-05-01T22:28:04.303Z,4.03
2023-05-01T22:30:31.504Z,3.72
2023-05-01T22:32:58.991Z,5.80
2023-05-01T22:35:26.305Z,3.53
2023-05-01T22:37:53.604Z,5.90
2023-05-01T22:40:20.715Z,5.40
2023-05-01T22:42:48.101Z,6.28
2023-05-01T22:45:16.820Z,6.07
2023-05-01T22:47:44.184Z,5.63
2023-05-01T22:50:12.092Z,4.25
2023-05-01T22:52:40.296Z,5.38
2023-05-01T22:55:07.891Z,3.97
2023-05-01T22:57:35.186Z,8.07
2023-05-01T23:00:02.444Z,3.85
2023-05-01T23:02:32.985Z,5.97
2023-05-01T23:05:00.333Z,6.80
2023-05-01T23:07:27.609Z,3.95
2023-05-01T23:09:56.220Z,4.45
2023-05-01T23:12:25.672Z,3.63
2023-05-01T23:14:54.599Z,4.35
2023-05-01T23:17:22.082Z,5.50
2023-05-01T23:19:50.485Z,6.07
2023-05-01T23:22:19.213Z,3.10
2023-05-01T23:24:48.383Z,3.88
2023-05-01T23:27:16.877Z,5.00
2023-05-01T23:29:52.210Z,3.35
2023-05-01T23:32:25.472Z,5.70
2023-05-01T23:34:55.227Z,4.20
2023-05-01T23:37:22.657Z,4.63
2023-05-01T23:39:49.606Z,4.60
2023-05-01T23:42:16.965Z,6.38
2023-05-01T23:44:44.069Z,5.57
2023-05-01T23:47:11.662Z,5.53
2023-05-01T23:49:38.843Z,8.90
2023-05-01T23:52:07.810Z,9.95
2023-05-01T23:54:35.127Z,11.75
2023-05-01T23:57:02.465Z,12.35
2023-05-01T23:59:29.413Z,7.30
